Time,TemperatureF,DewpointF,PressureIn,WindDirection,WindDirectionDegrees,WindSpeedMPH,WindSpeedGustMPH,Humidity,HourlyPrecipIn,Conditions,Clouds,dailyrainin,SolarRadiationWatts/m^2,SoftwareType,DateUTC
2013-05-30 00:02:00,74.0,71.0,-100.00,SE,143,2.0,7.0,89,0.00,,,0.00,0.000000,,2013-05-30 05:02:00,
2013-05-30 00:32:00,73.0,70.0,-100.00,SE,128,2.0,7.0,91,0.00,,,0.00,0.000000,,2013-05-30 05:32:00,
2013-05-30 00:43:00,73.0,70.0,-100.00,SE,128,2.0,7.0,91,0.00,,,0.00,0.000000,,2013-05-30 05:43:00,
2013-05-30 00:52:00,73.0,70.0,-100.00,SE,128,2.0,7.0,91,0.00,,,0.00,0.000000,,2013-05-30 05:52:00,
2013-05-30 01:01:00,73.0,70.0,-100.00,SE,128,2.0,7.0,91,0.00,,,0.00,0.000000,,2013-05-30 06:01:00,
2013-05-30 01:32:00,72.0,70.0,-100.00,South,191,0.0,5.0,93,0.00,,,0.00,0.000000,,2013-05-30 06:32:00,
2013-05-30 01:42:00,72.0,70.0,-100.00,South,191,0.0,5.0,93,0.00,,,0.00,0.000000,,2013-05-30 06:42:00,
2013-05-30 01:52:00,72.0,70.0,-100.00,South,191,0.0,5.0,93,0.00,,,0.00,0.000000,,2013-05-30 06:52:00,
2013-05-30 02:01:00,72.0,70.0,-100.00,South,191,0.0,5.0,93,0.00,,,0.00,0.000000,,2013-05-30 07:01:00,
2013-05-30 02:32:00,71.0,69.0,-100.00,SE,125,1.0,4.0,94,0.00,,,0.00,0.000000,,2013-05-30 07:32:00,
2013-05-30 02:42:00,71.0,69.0,-100.00,SE,125,1.0,4.0,94,0.00,,,0.00,0.000000,,2013-05-30 07:42:00,
2013-05-30 02:52:00,71.0,69.0,-100.00,SE,125,1.0,4.0,94,0.00,,,0.00,0.000000,,2013-05-30 07:52:00,
2013-05-30 03:02:00,71.0,69.0,-100.00,SE,125,1.0,4.0,94,0.00,,,0.00,0.000000,,2013-05-30 08:02:00,
2013-05-30 03:32:00,71.0,69.0,-100.00,ESE,107,1.0,4.0,95,0.00,,,0.00,0.000000,,2013-05-30 08:32:00,
2013-05-30 03:42:00,71.0,69.0,-100.00,ESE,107,1.0,4.0,95,0.00,,,0.00,0.000000,,2013-05-30 08:42:00,
2013-05-30 03:53:00,71.0,69.0,-100.00,ESE,107,1.0,4.0,95,0.00,,,0.00,0.000000,,2013-05-30 08:53:00,
2013-05-30 04:01:00,71.0,69.0,-100.00,ESE,107,1.0,4.0,95,0.00,,,0.00,0.000000,,2013-05-30 09:01:00,
2013-05-30 04:33:00,71.0,69.0,-100.00,ESE,117,3.0,7.0,95,0.00,,,0.00,0.000000,,2013-05-30 09:33:00,
2013-05-30 04:43:00,71.0,69.0,-100.00,ESE,117,3.0,7.0,95,0.00,,,0.00,0.000000,,2013-05-30 09:43:00,
2013-05-30 04:53:00,71.0,69.0,-100.00,ESE,117,3.0,7.0,95,0.00,,,0.00,0.000000,,2013-05-30 09:53:00,
2013-05-30 05:03:00,71.0,69.0,-100.00,ESE,117,3.0,7.0,95,0.00,,,0.00,0.000000,,2013-05-30 10:03:00,
2013-05-30 05:33:00,71.0,69.0,-100.00,SE,129,1.0,6.0,95,0.00,,,0.00,0.000000,,2013-05-30 10:33:00,
2013-05-30 05:42:00,71.0,69.0,-100.00,SE,129,1.0,6.0,95,0.00,,,0.00,0.000000,,2013-05-30 10:42:00,
2013-05-30 05:52:00,71.0,69.0,-100.00,SE,129,1.0,6.0,95,0.00,,,0.00,0.000000,,2013-05-30 10:52:00,
2013-05-30 06:03:00,71.0,69.0,-100.00,SE,129,1.0,6.0,95,0.00,,,0.00,0.000000,,2013-05-30 11:03:00,
2013-05-30 06:32:00,70.0,68.0,-100.00,East,91,0.0,6.0,95,0.00,,,0.00,1.000000,,2013-05-30 11:32:00,
2013-05-30 06:42:00,70.0,68.0,-100.00,East,91,0.0,6.0,95,0.00,,,0.00,1.000000,,2013-05-30 11:42:00,
2013-05-30 06:52:00,70.0,68.0,-100.00,East,91,0.0,6.0,95,0.00,,,0.00,1.000000,,2013-05-30 11:52:00,
2013-05-30 07:01:00,70.0,68.0,-100.00,East,91,0.0,6.0,95,0.00,,,0.00,1.000000,,2013-05-30 12:01:00,
2013-05-30 07:32:00,74.0,72.0,-100.00,ESE,102,3.0,7.0,92,0.00,,,0.00,77.000000,,2013-05-30 12:32:00,
2013-05-30 07:42:00,74.0,72.0,-100.00,ESE,102,3.0,7.0,92,0.00,,,0.00,77.000000,,2013-05-30 12:42:00,
2013-05-30 07:52:00,74.0,72.0,-100.00,ESE,102,3.0,7.0,92,0.00,,,0.00,77.000000,,2013-05-30 12:52:00,
2013-05-30 08:01:00,74.0,72.0,-100.00,ESE,102,3.0,7.0,92,0.00,,,0.00,77.000000,,2013-05-30 13:01:00,
2013-05-30 08:32:00,76.0,72.0,-100.00,ESE,110,3.0,9.0,86,0.00,,,0.00,147.000000,,2013-05-30 13:32:00,
2013-05-30 08:42:00,76.0,72.0,-100.00,ESE,110,3.0,9.0,86,0.00,,,0.00,147.000000,,2013-05-30 13:42:00,
2013-05-30 08:52:00,76.0,72.0,-100.00,ESE,110,3.0,9.0,86,0.00,,,0.00,147.000000,,2013-05-30 13:52:00,
2013-05-30 09:01:00,76.0,72.0,-100.00,ESE,110,3.0,9.0,86,0.00,,,0.00,147.000000,,2013-05-30 14:01:00,
2013-05-30 09:32:00,78.0,72.0,-100.00,SSE,159,3.0,9.0,82,0.00,,,0.00,157.000000,,2013-05-30 14:32:00,
2013-05-30 09:42:00,78.0,72.0,-100.00,SSE,159,3.0,9.0,82,0.00,,,0.00,157.000000,,2013-05-30 14:42:00,
2013-05-30 09:52:00,78.0,72.0,-100.00,SSE,159,3.0,9.0,82,0.00,,,0.00,157.000000,,2013-05-30 14:52:00,
2013-05-30 10:01:00,78.0,72.0,-100.00,SSE,159,3.0,9.0,82,0.00,,,0.00,157.000000,,2013-05-30 15:01:00,
2013-05-30 10:33:00,82.0,74.0,-100.00,ESE,116,4.0,9.0,76,0.00,,,0.00,263.000000,,2013-05-30 15:33:00,
2013-05-30 10:43:00,82.0,74.0,-100.00,ESE,116,4.0,9.0,76,0.00,,,0.00,263.000000,,2013-05-30 15:43:00,
2013-05-30 10:53:00,82.0,74.0,-100.00,ESE,116,4.0,9.0,76,0.00,,,0.00,263.000000,,2013-05-30 15:53:00,
2013-05-30 11:03:00,82.0,74.0,-100.00,ESE,116,4.0,9.0,76,0.00,,,0.00,263.000000,,2013-05-30 16:03:00,
2013-05-30 11:33:00,81.0,72.0,-100.00,SSW,203,4.0,13.0,75,0.00,,,0.00,325.000000,,2013-05-30 16:33:00,
2013-05-30 11:42:00,81.0,72.0,-100.00,SSW,203,4.0,13.0,75,0.00,,,0.00,325.000000,,2013-05-30 16:42:00,
2013-05-30 11:53:00,81.0,72.0,-100.00,SSW,203,4.0,13.0,75,0.00,,,0.00,325.000000,,2013-05-30 16:53:00,
2013-05-30 12:02:00,81.0,72.0,-100.00,SSW,203,4.0,13.0,75,0.00,,,0.00,325.000000,,2013-05-30 17:02:00,
2013-05-30 12:22:00,82.0,74.0,-100.00,SE,128,5.0,14.0,77,0.01,,,0.01,521.000000,,2013-05-30 17:22:00,
2013-05-30 12:32:00,82.0,74.0,-100.00,SE,128,5.0,14.0,77,0.01,,,0.01,521.000000,,2013-05-30 17:32:00,
2013-05-30 12:42:00,82.0,74.0,-100.00,SE,128,5.0,14.0,77,0.01,,,0.01,521.000000,,2013-05-30 17:42:00,
2013-05-30 12:52:00,82.0,74.0,-100.00,SE,128,5.0,14.0,77,0.01,,,0.01,521.000000,,2013-05-30 17:52:00,
2013-05-30 13:02:00,82.0,74.0,-100.00,SE,128,5.0,14.0,77,0.01,,,0.01,521.000000,,2013-05-30 18:02:00,
2013-05-30 13:32:00,79.0,75.0,-100.00,South,171,3.0,14.0,89,0.08,,,0.09,376.000000,,2013-05-30 18:32:00,
2013-05-30 13:43:00,79.0,75.0,-100.00,South,171,3.0,14.0,89,0.08,,,0.09,376.000000,,2013-05-30 18:43:00,
2013-05-30 13:52:00,79.0,75.0,-100.00,South,171,3.0,14.0,89,0.08,,,0.09,376.000000,,2013-05-30 18:52:00,
2013-05-30 14:01:00,79.0,75.0,-100.00,South,171,3.0,14.0,89,0.08,,,0.09,376.000000,,2013-05-30 19:01:00,
2013-05-30 14:32:00,84.0,75.0,-100.00,SSE,148,4.0,16.0,74,0.00,,,0.09,632.000000,,2013-05-30 19:32:00,
2013-05-30 14:42:00,84.0,75.0,-100.00,SSE,148,4.0,16.0,74,0.00,,,0.09,632.000000,,2013-05-30 19:42:00,
2013-05-30 14:53:00,84.0,75.0,-100.00,SSE,148,4.0,16.0,74,0.00,,,0.09,632.000000,,2013-05-30 19:53:00,
2013-05-30 15:01:00,84.0,75.0,-100.00,SSE,148,4.0,16.0,74,0.00,,,0.09,632.000000,,2013-05-30 20:01:00,
2013-05-30 15:33:00,83.0,77.0,-100.00,SSE,149,2.0,8.0,81,0.14,,,0.23,535.000000,,2013-05-30 20:33:00,
2013-05-30 15:42:00,83.0,77.0,-100.00,SSE,149,2.0,8.0,81,0.14,,,0.23,535.000000,,2013-05-30 20:42:00,
2013-05-30 15:52:00,83.0,77.0,-100.00,SSE,149,2.0,8.0,81,0.14,,,0.23,535.000000,,2013-05-30 20:52:00,
2013-05-30 16:01:00,83.0,77.0,-100.00,SSE,149,2.0,8.0,81,0.14,,,0.23,535.000000,,2013-05-30 21:01:00,
2013-05-30 16:33:00,85.0,74.0,-100.00,SSE,162,4.0,12.0,70,0.00,,,0.23,557.000000,,2013-05-30 21:33:00,
2013-05-30 16:43:00,85.0,74.0,-100.00,SSE,162,4.0,12.0,70,0.00,,,0.23,557.000000,,2013-05-30 21:43:00,
2013-05-30 16:53:00,85.0,74.0,-100.00,SSE,162,4.0,12.0,70,0.00,,,0.23,557.000000,,2013-05-30 21:53:00,
2013-05-30 17:02:00,85.0,74.0,-100.00,SSE,162,4.0,12.0,70,0.00,,,0.23,557.000000,,2013-05-30 22:02:00,
2013-05-30 17:33:00,77.0,74.0,-100.00,SSW,209,3.0,12.0,89,0.05,,,0.28,310.000000,,2013-05-30 22:33:00,
2013-05-30 17:42:00,77.0,74.0,-100.00,SSW,209,3.0,12.0,89,0.05,,,0.28,310.000000,,2013-05-30 22:42:00,
2013-05-30 17:52:00,77.0,74.0,-100.00,SSW,209,3.0,12.0,89,0.05,,,0.28,310.000000,,2013-05-30 22:52:00,
2013-05-30 18:02:00,77.0,74.0,-100.00,SSW,209,3.0,12.0,89,0.05,,,0.28,310.000000,,2013-05-30 23:02:00,
2013-05-30 18:32:00,79.0,73.0,-100.00,South,184,3.0,11.0,83,0.00,,,0.28,241.000000,,2013-05-30 23:32:00,
2013-05-30 18:42:00,79.0,73.0,-100.00,South,184,3.0,11.0,83,0.00,,,0.28,241.000000,,2013-05-30 23:42:00,
2013-05-30 18:52:00,79.0,73.0,-100.00,South,184,3.0,11.0,83,0.00,,,0.28,241.000000,,2013-05-30 23:52:00,
2013-05-30 19:01:00,79.0,73.0,-100.00,South,184,3.0,11.0,83,0.00,,,0.28,241.000000,,2013-05-31 00:01:00,
2013-05-30 19:22:00,76.0,73.0,-100.00,SSW,199,2.0,11.0,89,0.00,,,0.28,98.000000,,2013-05-31 00:22:00,
2013-05-30 19:32:00,76.0,73.0,-100.00,SSW,199,2.0,11.0,89,0.00,,,0.28,98.000000,,2013-05-31 00:32:00,
2013-05-30 19:42:00,76.0,73.0,-100.00,SSW,199,2.0,11.0,89,0.00,,,0.28,98.000000,,2013-05-31 00:42:00,
2013-05-30 19:52:00,76.0,73.0,-100.00,SSW,199,2.0,11.0,89,0.00,,,0.28,98.000000,,2013-05-31 00:52:00,
2013-05-30 20:01:00,76.0,73.0,-100.00,SSW,199,2.0,11.0,89,0.00,,,0.28,98.000000,,2013-05-31 01:01:00,
2013-05-30 20:32:00,75.0,72.0,-100.00,SSW,204,1.0,7.0,90,0.00,,,-99.99,12.000000,,2013-05-31 01:32:00,
2013-05-30 20:42:00,75.0,72.0,-100.00,SSW,204,1.0,7.0,90,0.00,,,-99.99,12.000000,,2013-05-31 01:42:00,
2013-05-30 20:52:00,75.0,72.0,-100.00,SSW,204,1.0,7.0,90,0.00,,,-99.99,12.000000,,2013-05-31 01:52:00,
2013-05-30 21:02:00,75.0,72.0,-100.00,SSW,204,1.0,7.0,90,0.00,,,-99.99,12.000000,,2013-05-31 02:02:00,
2013-05-30 21:32:00,73.0,70.0,-100.00,South,176,2.0,7.0,91,0.00,,,-99.99,0.000000,,2013-05-31 02:32:00,
2013-05-30 21:42:00,73.0,70.0,-100.00,South,176,2.0,7.0,91,0.00,,,-99.99,0.000000,,2013-05-31 02:42:00,
2013-05-30 21:52:00,73.0,70.0,-100.00,South,176,2.0,7.0,91,0.00,,,-99.99,0.000000,,2013-05-31 02:52:00,
2013-05-30 22:01:00,73.0,70.0,-100.00,South,176,2.0,7.0,91,0.00,,,-99.99,0.000000,,2013-05-31 03:01:00,
2013-05-30 22:33:00,72.0,70.0,-100.00,SSE,165,1.0,5.0,92,0.00,,,0.28,0.000000,,2013-05-31 03:33:00,
2013-05-30 22:43:00,72.0,70.0,-100.00,SSE,165,1.0,5.0,92,0.00,,,0.28,0.000000,,2013-05-31 03:43:00,
2013-05-30 22:53:00,72.0,70.0,-100.00,SSE,165,1.0,5.0,92,0.00,,,0.28,0.000000,,2013-05-31 03:53:00,
2013-05-30 23:02:00,72.0,70.0,-100.00,SSE,165,1.0,5.0,92,0.00,,,0.28,0.000000,,2013-05-31 04:02:00,
2013-05-30 23:33:00,71.0,69.0,-100.00,SSE,162,0.0,2.0,94,0.00,,,0.28,0.000000,,2013-05-31 04:33:00,
2013-05-30 23:42:00,71.0,69.0,-100.00,SSE,162,0.0,2.0,94,0.00,,,0.28,0.000000,,2013-05-31 04:42:00,
2013-05-30 23:53:00,71.0,69.0,-100.00,SSE,162,0.0,2.0,94,0.00,,,0.28,0.000000,,2013-05-31 04:53:00,